Terminal Aerodrome Forecast
Issued by NWS Sterling, VA

Home | Current Version | Previous Version | Text Only | Print | Product List | Glossary On
Versions: 1 2 3 4 5 6 7 8 9 10 11 12 13 14 15 16 17 18 19 20 21
000
FTUS41 KLWX 220900 AAA
TAFDCA
TAF AMD
KDCA 220910Z 2209/2306 04004KT P6SM BKN050
     FM221600 06004KT 6SM -RAPL OVC050
     FM221800 06004KT 5SM -RA SCT025 OVC050
     FM222000 06004KT 5SM -RA SCT015 OVC025
     FM230000 03006KT 3SM -RA OVC015
     FM230500 36005KT P6SM OVC008=

USA.gov is the U.S. government's official web portal to all federal, state and local government web resources and services.